Time;durP1;ratioP1;P1;durP2;ratioP2;P2;SDS_P1;SDS_P2;PMS_P1;PMS_P2;Temp;Humidity;BMP_temperature;BMP_pressure;BME280_temperature;BME280_humidity;BME280_pressure;Samples;Min_cycle;Max_cycle;Signal;HPM_P1;HPM_P2
2021/04/13 00:01:19;;;;;;;6.50;5.70;;;2.80;99.90;;;;;;5037182;28;20471;-79
2021/04/13 00:03:49;;;;;;;7.73;5.00;;;2.90;99.90;;;;;;5020929;28;20433;-80
2021/04/13 00:06:21;;;;;;;6.33;5.67;;;2.80;99.90;;;;;;5019799;28;20519;-79
2021/04/13 00:08:52;;;;;;;5.67;5.00;;;2.80;99.90;;;;;;5023875;28;20431;-80
2021/04/13 00:11:28;;;;;;;5.50;4.33;;;2.80;99.90;;;;;;5006301;28;20423;-79
2021/04/13 00:13:59;;;;;;;8.30;5.23;;;2.80;99.90;;;;;;5039100;28;20519;-79
2021/04/13 00:16:30;;;;;;;7.37;4.80;;;2.80;99.90;;;;;;5022415;28;20459;-79
2021/04/13 00:18:59;;;;;;;4.47;4.07;;;2.80;99.90;;;;;;5020038;28;20920;-79
2021/04/13 00:21:30;;;;;;;6.07;4.77;;;2.80;99.90;;;;;;5022406;28;20450;-81
2021/04/13 00:24:03;;;;;;;5.50;4.30;;;2.80;99.90;;;;;;5022178;28;20430;-79
2021/04/13 00:26:32;;;;;;;6.63;4.93;;;2.70;99.90;;;;;;5020007;28;20423;-80
2021/04/13 00:29:08;;;;;;;8.90;5.57;;;2.80;99.90;;;;;;5023684;28;20451;-80
2021/04/13 00:31:41;;;;;;;5.40;4.90;;;2.70;99.90;;;;;;5021290;28;20437;-79
2021/04/13 00:34:22;;;;;;;4.70;4.00;;;2.70;99.90;;;;;;5006350;28;20537;-80
2021/04/13 00:36:51;;;;;;;5.60;5.00;;;2.70;99.90;;;;;;5020072;28;20438;-79
2021/04/13 00:39:25;;;;;;;6.20;4.97;;;2.60;99.90;;;;;;5019221;28;20432;-79
2021/04/13 00:42:15;;;;;;;7.37;6.63;;;2.50;99.90;;;;;;5020554;28;20564;-79
2021/04/13 00:44:47;;;;;;;6.83;5.47;;;2.60;99.90;;;;;;5026106;28;20434;-80
2021/04/13 00:47:21;;;;;;;7.37;4.50;;;2.50;99.90;;;;;;5038014;28;20442;-79
2021/04/13 00:49:54;;;;;;;5.07;4.33;;;2.50;99.90;;;;;;5036959;28;20454;-80
2021/04/13 00:52:34;;;;;;;5.83;4.90;;;2.50;99.90;;;;;;5003790;28;20479;-79
2021/04/13 00:55:10;;;;;;;5.57;4.83;;;2.50;99.90;;;;;;5037677;28;20427;-79
2021/04/13 00:57:42;;;;;;;4.50;4.10;;;2.60;99.90;;;;;;5002262;28;20478;-78
2021/04/13 01:00:22;;;;;;;6.57;5.10;;;2.60;99.90;;;;;;5021038;28;20439;-79
2021/04/13 01:02:56;;;;;;;6.10;4.73;;;2.60;99.90;;;;;;5039486;28;20765;-79
2021/04/13 01:05:35;;;;;;;4.23;3.83;;;2.60;99.90;;;;;;5040876;28;20422;-78
2021/04/13 01:08:29;;;;;;;4.57;4.10;;;2.60;99.90;;;;;;5038056;28;20434;-79
2021/04/13 01:10:59;;;;;;;4.90;4.33;;;2.60;99.90;;;;;;5024993;28;20493;-79
2021/04/13 01:13:49;;;;;;;5.13;4.63;;;2.60;99.90;;;;;;5020914;28;20534;-80
2021/04/13 01:16:23;;;;;;;9.43;4.70;;;2.50;99.90;;;;;;5037762;28;20526;-79
2021/04/13 01:18:54;;;;;;;6.90;3.83;;;2.60;99.90;;;;;;5039003;28;20426;-79
2021/04/13 01:21:35;;;;;;;7.10;5.03;;;2.60;99.90;;;;;;5037314;28;20438;-79
2021/04/13 01:24:11;;;;;;;6.00;4.90;;;2.60;99.90;;;;;;5020791;28;20435;-79
2021/04/13 01:26:44;;;;;;;5.03;4.50;;;2.60;99.90;;;;;;5038027;28;20427;-79
2021/04/13 01:29:16;;;;;;;5.60;4.83;;;2.70;99.90;;;;;;5019651;28;20431;-80
2021/04/13 01:31:52;;;;;;;6.00;4.30;;;2.70;99.90;;;;;;5004519;28;20451;-79
2021/04/13 01:34:26;;;;;;;5.47;4.37;;;2.70;99.90;;;;;;5025660;28;20842;-79
2021/04/13 01:37:15;;;;;;;6.10;5.03;;;2.70;99.90;;;;;;5037752;28;20868;-79
2021/04/13 01:39:53;;;;;;;6.50;4.53;;;2.60;99.90;;;;;;5004187;28;20444;-79
2021/04/13 01:42:23;;;;;;;6.17;4.53;;;2.60;99.90;;;;;;5036890;28;20475;-79
2021/04/13 01:44:55;;;;;;;4.87;4.47;;;2.60;99.90;;;;;;5018983;28;20457;-80
2021/04/13 01:47:27;;;;;;;5.57;4.93;;;2.50;99.90;;;;;;5003533;28;20502;-79
2021/04/13 01:49:58;;;;;;;6.43;5.10;;;2.50;99.90;;;;;;5018755;28;20856;-80
2021/04/13 01:52:30;;;;;;;6.00;4.63;;;2.50;99.90;;;;;;5001980;28;20510;-79
2021/04/13 01:54:58;;;;;;;9.03;5.50;;;2.50;99.90;;;;;;5005314;28;20443;-80
2021/04/13 02:00:32;;;;;;;6.40;4.70;;;2.40;99.90;;;;;;5019570;28;20443;-79
2021/04/13 02:03:16;;;;;;;4.73;4.20;;;2.40;99.90;;;;;;5020212;28;20465;-80
2021/04/13 02:05:50;;;;;;;5.20;4.63;;;2.40;99.90;;;;;;5019622;28;20431;-79
2021/04/13 02:08:24;;;;;;;5.47;4.53;;;2.40;99.90;;;;;;5036029;28;20435;-79
2021/04/13 02:10:57;;;;;;;6.40;4.50;;;2.30;99.90;;;;;;5018354;28;20556;-79
2021/04/13 02:13:31;;;;;;;6.97;5.00;;;2.20;99.90;;;;;;5020066;28;20470;-80
2021/04/13 02:16:07;;;;;;;4.67;4.10;;;2.30;99.90;;;;;;5017761;28;20469;-79
2021/04/13 02:18:40;;;;;;;5.77;4.90;;;2.30;99.90;;;;;;5035720;28;20529;-79
2021/04/13 02:21:11;;;;;;;4.27;3.90;;;2.30;99.90;;;;;;5016127;28;20940;-79
2021/04/13 02:23:45;;;;;;;7.60;5.37;;;2.30;99.90;;;;;;5016583;28;20474;-79
2021/04/13 02:26:14;;;;;;;6.50;5.17;;;2.30;99.90;;;;;;5017896;28;20889;-79
2021/04/13 02:28:44;;;;;;;6.00;5.40;;;2.30;99.90;;;;;;5034205;28;20793;-80
2021/04/13 02:31:36;;;;;;;5.60;4.83;;;2.20;99.90;;;;;;5001089;28;21010;-80
2021/04/13 02:34:12;;;;;;;7.30;5.87;;;2.20;99.90;;;;;;5016749;28;20419;-79
2021/04/13 02:36:45;;;;;;;6.07;5.47;;;2.10;99.90;;;;;;5017524;28;20939;-79
2021/04/13 02:39:15;;;;;;;6.37;5.10;;;2.20;99.90;;;;;;5018716;28;20543;-80
2021/04/13 02:41:52;;;;;;;6.37;4.90;;;2.20;99.90;;;;;;5000063;28;20431;-79
2021/04/13 02:44:22;;;;;;;5.40;4.90;;;2.20;99.90;;;;;;5017817;28;20439;-80
2021/04/13 02:46:55;;;;;;;6.43;5.23;;;2.20;99.90;;;;;;5036123;28;20455;-80
2021/04/13 02:49:27;;;;;;;6.37;5.77;;;2.10;99.90;;;;;;5034650;28;20431;-80
2021/04/13 02:51:58;;;;;;;6.50;4.93;;;2.20;99.90;;;;;;5019708;28;20857;-80
2021/04/13 02:54:30;;;;;;;7.60;5.23;;;2.20;99.90;;;;;;5017540;28;20431;-79
2021/04/13 02:57:04;;;;;;;6.13;5.53;;;2.10;99.90;;;;;;5034892;28;20521;-80
2021/04/13 02:59:36;;;;;;;7.23;5.40;;;2.00;99.90;;;;;;5037001;28;20442;-81
2021/04/13 03:02:13;;;;;;;8.23;5.57;;;2.00;99.90;;;;;;5034749;28;20485;-79
2021/04/13 03:04:44;;;;;;;6.20;5.60;;;2.00;99.90;;;;;;5035594;28;20443;-80
2021/04/13 03:07:19;;;;;;;6.33;5.07;;;2.00;99.90;;;;;;5023006;28;20439;-79
2021/04/13 03:09:48;;;;;;;7.50;6.20;;;2.00;99.90;;;;;;5043753;28;20439;-79
2021/04/13 03:12:17;;;;;;;6.27;5.60;;;2.00;99.90;;;;;;5042855;28;20419;-79
2021/04/13 03:14:50;;;;;;;8.30;6.10;;;1.90;99.90;;;;;;5022954;28;20442;-79
2021/04/13 03:17:22;;;;;;;6.70;5.10;;;2.00;99.90;;;;;;5022248;28;20427;-80
2021/04/13 03:19:58;;;;;;;8.30;6.27;;;1.90;99.90;;;;;;5021165;28;20411;-79
2021/04/13 03:22:32;;;;;;;6.63;5.87;;;1.90;99.90;;;;;;5010366;28;20470;-80
2021/04/13 03:25:01;;;;;;;9.77;5.37;;;1.90;99.90;;;;;;5023280;28;20989;-79
2021/04/13 03:27:31;;;;;;;8.30;5.50;;;1.90;99.90;;;;;;5022298;28;20440;-80
2021/04/13 03:30:06;;;;;;;8.83;5.87;;;1.90;99.90;;;;;;5020991;28;20435;-80
2021/04/13 03:32:39;;;;;;;8.47;5.67;;;1.90;99.90;;;;;;5022431;28;20443;-79
2021/04/13 03:35:09;;;;;;;7.30;5.60;;;1.80;99.90;;;;;;5023253;28;20542;-80
2021/04/13 03:37:43;;;;;;;13.97;6.57;;;1.70;99.90;;;;;;5039031;28;20433;-80
2021/04/13 03:40:16;;;;;;;7.43;5.73;;;1.70;99.90;;;;;;5038121;28;20427;-79
2021/04/13 03:42:45;;;;;;;6.93;6.10;;;1.70;99.90;;;;;;5024556;28;20565;-80
2021/04/13 03:45:17;;;;;;;8.17;6.73;;;1.70;99.90;;;;;;5021385;28;20450;-79
2021/04/13 03:47:47;;;;;;;7.23;5.87;;;1.70;99.90;;;;;;5023224;28;20434;-80
2021/04/13 03:50:26;;;;;;;8.33;6.40;;;1.60;99.90;;;;;;5040132;28;20501;-79
2021/04/13 03:53:04;;;;;;;6.67;5.70;;;1.60;99.90;;;;;;5024584;28;20475;-80
2021/04/13 03:55:36;;;;;;;10.23;7.53;;;1.60;99.90;;;;;;5022159;28;20468;-81
2021/04/13 03:58:19;;;;;;;7.77;6.17;;;1.50;99.90;;;;;;5037729;28;20431;-80
2021/04/13 04:00:47;;;;;;;8.63;6.30;;;1.50;99.90;;;;;;5021112;28;20423;-79
2021/04/13 04:03:16;;;;;;;8.13;6.83;;;1.50;99.90;;;;;;5020943;28;20466;-79
2021/04/13 04:05:52;;;;;;;8.13;7.03;;;1.50;99.90;;;;;;5018798;28;20432;-79
2021/04/13 04:08:29;;;;;;;7.10;5.60;;;1.50;99.90;;;;;;5020834;28;20886;-79
2021/04/13 04:10:59;;;;;;;8.27;6.83;;;1.40;99.90;;;;;;5018443;28;20492;-79
2021/04/13 04:13:31;;;;;;;7.70;6.53;;;1.40;99.90;;;;;;5036585;28;20448;-78
2021/04/13 04:16:19;;;;;;;6.63;5.90;;;1.30;99.90;;;;;;5036825;28;20438;-79
2021/04/13 04:18:50;;;;;;;7.87;6.83;;;1.30;99.90;;;;;;5018605;28;20438;-80
2021/04/13 04:21:27;;;;;;;10.00;7.40;;;1.30;99.90;;;;;;5037870;28;20790;-79
2021/04/13 04:23:58;;;;;;;9.23;7.40;;;1.20;99.90;;;;;;5035892;28;20479;-78
2021/04/13 04:26:31;;;;;;;9.00;6.90;;;1.20;99.90;;;;;;5002049;28;20959;-79
2021/04/13 04:29:15;;;;;;;7.30;6.10;;;1.20;99.90;;;;;;5018106;28;20948;-79
2021/04/13 04:31:45;;;;;;;9.50;7.70;;;1.20;99.90;;;;;;5018214;28;20435;-79
2021/04/13 04:34:51;;;;;;;10.63;7.70;;;1.20;99.90;;;;;;5018320;28;20443;-79
2021/04/13 04:37:29;;;;;;;7.17;6.13;;;1.10;99.90;;;;;;5017795;28;20531;-79
2021/04/13 04:40:38;;;;;;;10.53;7.37;;;1.10;99.90;;;;;;5018926;28;20485;-79
2021/04/13 04:43:09;;;;;;;10.93;7.83;;;1.10;99.90;;;;;;5037231;28;20966;-77
2021/04/13 04:45:47;;;;;;;10.47;8.47;;;1.10;99.90;;;;;;5019022;28;20440;-79
2021/04/13 04:48:24;;;;;;;12.03;7.80;;;1.00;99.90;;;;;;5001727;28;20440;-79
2021/04/13 04:50:56;;;;;;;12.27;8.73;;;1.00;99.90;;;;;;5035933;28;20430;-80
2021/04/13 04:53:25;;;;;;;12.73;8.43;;;1.10;99.90;;;;;;5017746;28;20983;-79
2021/04/13 04:55:55;;;;;;;8.90;7.97;;;1.10;99.90;;;;;;5018131;28;20797;-78
2021/04/13 04:58:26;;;;;;;11.47;7.47;;;1.10;99.90;;;;;;5002387;28;20443;-79
2021/04/13 05:00:55;;;;;;;9.20;7.80;;;1.30;99.90;;;;;;5036446;28;20493;-78
2021/04/13 05:03:25;;;;;;;12.27;9.03;;;1.20;99.90;;;;;;5018141;28;20470;-79
2021/04/13 05:08:47;;;;;;;10.60;8.20;;;1.40;99.90;;;;;;5019831;28;20511;-80
2021/04/13 05:11:15;;;;;;;11.70;8.80;;;1.50;99.90;;;;;;5020147;28;20431;-79
2021/04/13 05:13:43;;;;;;;13.53;8.80;;;1.60;99.90;;;;;;5019012;28;20447;-80
2021/04/13 05:16:14;;;;;;;10.77;8.30;;;1.60;99.90;;;;;;5037309;28;20408;-80
2021/04/13 05:18:42;;;;;;;11.93;7.70;;;1.60;99.90;;;;;;5040005;28;20407;-80
2021/04/13 05:21:13;;;;;;;10.40;8.37;;;1.50;99.90;;;;;;5022689;28;20470;-80
2021/04/13 05:23:41;;;;;;;14.57;9.23;;;1.50;99.90;;;;;;5022979;28;20478;-80
2021/04/13 05:26:10;;;;;;;12.23;8.90;;;1.50;99.90;;;;;;5009877;28;20448;-80
2021/04/13 05:28:42;;;;;;;12.73;9.20;;;1.60;99.90;;;;;;5009193;28;20942;-80
2021/04/13 05:31:11;;;;;;;12.20;8.23;;;1.50;99.90;;;;;;5039431;28;20944;-79
2021/04/13 05:33:40;;;;;;;13.87;10.10;;;1.60;99.90;;;;;;5017975;28;20440;-80
2021/04/13 05:36:09;;;;;;;12.20;8.63;;;1.60;99.90;;;;;;5000992;28;20493;-79
2021/04/13 05:38:42;;;;;;;13.90;10.00;;;1.60;99.90;;;;;;5035582;28;20485;-80
2021/04/13 05:41:15;;;;;;;9.50;6.90;;;1.70;99.90;;;;;;5019115;28;20431;-80
2021/04/13 05:43:47;;;;;;;13.00;9.07;;;1.80;99.90;;;;;;5003891;28;20496;-81
2021/04/13 05:46:18;;;;;;;9.33;6.50;;;1.80;99.90;;;;;;5019272;28;20488;-80
2021/04/13 05:48:47;;;;;;;9.77;7.70;;;1.90;99.90;;;;;;5000897;28;20446;-80
2021/04/13 05:51:16;;;;;;;15.63;8.70;;;2.10;99.90;;;;;;5001669;28;20995;-80
2021/04/13 05:53:46;;;;;;;9.57;7.07;;;2.10;99.90;;;;;;5017523;28;20448;-80
2021/04/13 05:59:17;;;;;;;10.37;7.23;;;2.20;99.90;;;;;;5034607;28;20451;-80
2021/04/13 06:01:48;;;;;;;8.43;7.27;;;2.20;99.90;;;;;;5034893;28;20424;-80
2021/04/13 06:04:21;;;;;;;11.70;7.70;;;2.50;99.90;;;;;;5017438;28;20507;-80
2021/04/13 06:06:49;;;;;;;11.00;7.03;;;2.80;99.90;;;;;;5018613;28;20424;-80
2021/04/13 06:09:20;;;;;;;12.50;7.60;;;3.30;99.90;;;;;;5018461;28;20435;-80
2021/04/13 06:11:49;;;;;;;8.37;7.50;;;3.90;99.90;;;;;;5035385;28;20984;-80
2021/04/13 06:14:21;;;;;;;8.60;7.20;;;4.20;99.90;;;;;;5000600;28;20443;-80
2021/04/13 06:16:51;;;;;;;8.57;7.13;;;5.00;99.90;;;;;;5016851;28;20477;-80
2021/04/13 06:19:23;;;;;;;9.07;6.90;;;5.40;99.90;;;;;;5017076;28;20450;-80
2021/04/13 06:21:53;;;;;;;9.93;6.90;;;4.60;99.90;;;;;;5002781;28;20454;-80
2021/04/13 06:24:22;;;;;;;10.67;6.10;;;4.30;99.90;;;;;;5034572;28;20463;-80
2021/04/13 06:26:51;;;;;;;14.97;7.90;;;4.40;99.90;;;;;;5034696;28;20427;-80
2021/04/13 06:29:57;;;;;;;12.47;6.73;;;4.70;99.90;;;;;;5017614;28;20462;-80
2021/04/13 06:32:28;;;;;;;9.23;6.40;;;4.90;99.90;;;;;;5138868;23;20521;-80
2021/04/13 06:35:00;;;;;;;6.50;5.80;;;5.20;99.90;;;;;;5027811;28;20440;-81
2021/04/13 06:37:32;;;;;;;8.00;6.27;;;6.50;99.90;;;;;;5044924;28;20438;-81
2021/04/13 06:40:01;;;;;;;8.73;6.90;;;6.80;99.50;;;;;;5041736;28;20423;-80
2021/04/13 06:42:48;;;;;;;7.20;5.60;;;6.80;98.40;;;;;;5025011;28;20455;-81
2021/04/13 06:45:27;;;;;;;7.47;6.67;;;7.20;97.20;;;;;;5039555;28;20395;-80
2021/04/13 06:48:13;;;;;;;7.77;6.37;;;8.10;96.00;;;;;;5006956;28;20877;-80
2021/04/13 06:50:52;;;;;;;7.27;5.70;;;8.30;94.60;;;;;;5038685;28;20440;-81
2021/04/13 06:53:33;;;;;;;6.77;5.97;;;9.20;93.60;;;;;;5041400;28;20939;-80
2021/04/13 06:56:22;;;;;;;6.93;6.13;;;9.50;91.60;;;;;;5041184;28;20616;-80
2021/04/13 06:59:44;;;;;;;5.00;4.27;;;9.20;90.90;;;;;;5041911;28;20430;-81
2021/04/13 07:02:16;;;;;;;9.50;6.00;;;9.90;90.70;;;;;;4983036;28;20417;-81
2021/04/13 07:05:13;;;;;;;10.17;5.70;;;10.80;87.20;;;;;;5025116;28;20479;-81
2021/04/13 07:07:52;;;;;;;6.50;5.13;;;10.60;85.40;;;;;;5044752;28;20886;-79
2021/04/13 07:10:27;;;;;;;6.67;5.97;;;11.10;86.20;;;;;;5048815;28;20858;-80
2021/04/13 07:13:05;;;;;;;5.80;5.07;;;10.30;83.20;;;;;;5058220;28;20440;-79
2021/04/13 07:15:42;;;;;;;8.13;6.77;;;10.10;86.30;;;;;;5024713;28;20439;-78
2021/04/13 07:18:20;;;;;;;9.07;6.03;;;9.90;86.00;;;;;;5057806;28;20429;-79
2021/04/13 07:20:57;;;;;;;6.40;5.67;;;9.60;90.00;;;;;;5044044;28;20419;-79
2021/04/13 07:23:31;;;;;;;9.20;7.23;;;8.40;91.30;;;;;;5060624;28;20489;-79
2021/04/13 07:26:07;;;;;;;8.90;6.43;;;7.30;93.60;;;;;;5057854;28;20440;-78
2021/04/13 07:28:41;;;;;;;9.60;6.60;;;7.90;93.70;;;;;;5042738;28;20437;-80
2021/04/13 07:31:17;;;;;;;8.60;6.80;;;8.50;91.20;;;;;;5025602;28;20441;-79
2021/04/13 07:33:47;;;;;;;10.27;5.80;;;9.80;91.20;;;;;;5058046;28;20469;-80
2021/04/13 07:36:21;;;;;;;9.93;7.33;;;10.00;88.20;;;;;;5058886;28;20437;-80
2021/04/13 07:38:51;;;;;;;8.00;6.20;;;9.80;87.30;;;;;;5027020;28;20445;-79
2021/04/13 07:41:27;;;;;;;7.03;6.20;;;9.50;90.00;;;;;;5040725;28;20427;-79
2021/04/13 07:44:03;;;;;;;6.30;5.70;;;9.00;91.00;;;;;;5041871;28;20469;-80
2021/04/13 07:46:45;;;;;;;7.80;6.37;;;8.90;92.00;;;;;;5026864;28;20434;-79
2021/04/13 07:49:45;;;;;;;8.70;6.93;;;8.60;91.70;;;;;;5056672;28;20427;-78
2021/04/13 07:52:29;;;;;;;7.00;6.13;;;9.50;90.90;;;;;;5058593;28;20732;-80
2021/04/13 07:55:06;;;;;;;6.80;6.10;;;9.20;91.00;;;;;;5023554;28;20496;-79
2021/04/13 07:57:40;;;;;;;7.23;6.00;;;10.20;89.20;;;;;;5041056;28;20433;-80
2021/04/13 08:00:19;;;;;;;8.40;6.03;;;11.50;85.30;;;;;;5057574;28;20447;-79
2021/04/13 08:03:03;;;;;;;9.13;7.30;;;11.80;82.00;;;;;;5039647;28;20444;-79
2021/04/13 08:05:40;;;;;;;6.70;6.03;;;11.90;77.10;;;;;;5040578;28;20786;-79
2021/04/13 08:08:18;;;;;;;7.00;6.30;;;12.00;75.50;;;;;;5041872;28;20422;-79
2021/04/13 08:10:46;;;;;;;10.23;6.47;;;11.60;77.40;;;;;;5027280;28;20446;-78
2021/04/13 08:13:27;;;;;;;7.73;7.00;;;13.60;73.70;;;;;;5023846;28;20427;-78
2021/04/13 08:15:56;;;;;;;7.07;5.17;;;12.20;70.30;;;;;;5058664;28;20440;-79
2021/04/13 08:18:35;;;;;;;8.27;6.10;;;14.30;72.00;;;;;;5039925;28;20472;-77
2021/04/13 08:21:19;;;;;;;7.03;6.33;;;15.90;63.40;;;;;;5057571;28;20431;-77
2021/04/13 08:23:50;;;;;;;8.17;6.23;;;14.60;60.60;;;;;;5040136;28;20469;-76
2021/04/13 08:26:35;;;;;;;7.73;6.90;;;16.70;59.40;;;;;;5057291;28;20986;-76
2021/04/13 08:29:19;;;;;;;7.60;6.90;;;16.10;55.80;;;;;;5023981;28;20446;-77
2021/04/13 08:35:03;;;;;;;6.17;5.57;;;17.80;53.00;;;;;;5056797;28;20438;-77
2021/04/13 08:37:50;;;;;;;7.13;6.53;;;16.60;52.40;;;;;;5058152;28;20431;-76
2021/04/13 08:40:32;;;;;;;7.37;6.50;;;12.70;58.40;;;;;;5039178;28;20438;-78
2021/04/13 08:43:10;;;;;;;7.80;7.10;;;12.90;62.10;;;;;;5056598;28;20437;-76
2021/04/13 08:45:41;;;;;;;8.47;6.07;;;15.60;57.20;;;;;;5056862;28;20438;-77
2021/04/13 08:48:17;;;;;;;8.00;6.50;;;17.70;51.00;;;;;;5057492;28;20427;-76
2021/04/13 08:50:48;;;;;;;7.87;7.07;;;19.60;47.70;;;;;;5040423;28;20728;-76
2021/04/13 08:53:31;;;;;;;7.50;6.80;;;20.10;44.30;;;;;;5057067;28;20433;-78
2021/04/13 08:56:06;;;;;;;7.67;6.90;;;16.40;46.40;;;;;;5040213;28;20422;-76
2021/04/13 08:58:44;;;;;;;7.67;6.70;;;15.70;49.70;;;;;;5038569;28;20433;-75
2021/04/13 09:01:30;;;;;;;7.67;6.97;;;17.40;48.90;;;;;;5038880;28;20522;-76
2021/04/13 09:03:59;;;;;;;7.33;6.70;;;17.00;47.00;;;;;;5055846;28;20473;-79
2021/04/13 09:06:45;;;;;;;7.20;6.60;;;13.90;50.70;;;;;;5022410;28;20437;-77
2021/04/13 09:09:27;;;;;;;7.60;6.90;;;13.70;52.40;;;;;;5056336;28;20415;-76
2021/04/13 09:12:05;;;;;;;6.77;6.00;;;14.80;49.00;;;;;;5039034;28;20857;-76
2021/04/13 09:14:36;;;;;;;14.70;9.40;;;16.40;47.70;;;;;;5056147;28;20434;-76
2021/04/13 09:17:12;;;;;;;9.37;8.43;;;16.80;46.20;;;;;;5037620;28;20454;-76
2021/04/13 09:19:52;;;;;;;9.03;7.33;;;13.00;49.20;;;;;;5038438;28;20437;-77
2021/04/13 09:22:25;;;;;;;7.60;6.80;;;11.30;55.90;;;;;;5039282;28;20416;-78
2021/04/13 09:25:11;;;;;;;8.70;6.67;;;9.30;59.30;;;;;;5039485;28;21001;-78
2021/04/13 09:27:42;;;;;;;6.40;5.80;;;8.60;61.60;;;;;;5040544;28;20429;-77
2021/04/13 09:30:33;;;;;;;8.00;6.37;;;8.40;64.80;;;;;;5057815;28;20452;-77
2021/04/13 09:33:13;;;;;;;7.10;6.47;;;8.40;67.40;;;;;;5059537;28;20482;-76
2021/04/13 09:36:01;;;;;;;6.20;5.60;;;9.80;66.60;;;;;;5057316;28;20442;-77
2021/04/13 09:38:56;;;;;;;5.63;5.00;;;11.20;56.80;;;;;;5023377;28;20524;-78
2021/04/13 09:41:43;;;;;;;6.50;5.90;;;10.30;56.80;;;;;;5038008;28;20439;-77
2021/04/13 09:44:51;;;;;;;6.90;6.20;;;12.10;56.50;;;;;;5054422;28;20467;-77
2021/04/13 09:47:32;;;;;;;6.17;5.57;;;11.00;55.80;;;;;;5056809;28;20477;-77
2021/04/13 09:50:12;;;;;;;8.13;5.80;;;10.20;59.40;;;;;;5021986;28;20521;-78
2021/04/13 09:53:26;;;;;;;6.53;5.50;;;9.50;63.30;;;;;;5056809;28;20438;-78
2021/04/13 09:56:05;;;;;;;5.63;5.13;;;8.60;66.40;;;;;;5038843;28;20438;-77
2021/04/13 09:58:58;;;;;;;6.30;5.43;;;8.70;68.00;;;;;;5056058;28;20452;-77
2021/04/13 10:01:47;;;;;;;9.67;6.77;;;11.00;61.20;;;;;;5040208;28;20474;-78
2021/04/13 10:04:30;;;;;;;8.70;7.80;;;12.00;52.80;;;;;;5041085;28;20518;-77
2021/04/13 10:07:18;;;;;;;6.77;6.07;;;13.40;51.00;;;;;;5058435;28;20425;-76
2021/04/13 10:09:46;;;;;;;5.43;4.93;;;14.30;47.90;;;;;;5038950;28;20465;-77
2021/04/13 10:13:05;;;;;;;5.50;4.90;;;13.90;45.20;;;;;;5037806;28;20431;-77
2021/04/13 10:16:04;;;;;;;5.43;4.93;;;11.70;49.50;;;;;;5055281;28;20442;-77
2021/04/13 10:19:01;;;;;;;5.30;4.80;;;12.40;49.90;;;;;;5039158;28;21192;-76
2021/04/13 10:21:59;;;;;;;5.90;5.33;;;11.60;50.50;;;;;;5039882;28;21014;-77
2021/04/13 10:24:59;;;;;;;7.00;6.20;;;10.60;54.80;;;;;;5038890;28;20457;-76
2021/04/13 10:28:01;;;;;;;9.03;5.90;;;10.00;56.90;;;;;;5056845;28;20956;-77
2021/04/13 10:31:20;;;;;;;9.53;6.43;;;10.10;58.90;;;;;;5039833;28;20445;-77
2021/04/13 10:34:12;;;;;;;6.07;5.47;;;11.40;54.60;;;;;;5056333;28;20490;-76
2021/04/13 10:37:17;;;;;;;7.60;6.90;;;12.70;52.90;;;;;;5056720;28;20491;-76
2021/04/13 10:39:54;;;;;;;6.37;4.90;;;13.10;51.80;;;;;;5037625;28;20449;-76
2021/04/13 10:42:53;;;;;;;6.23;5.47;;;12.80;52.80;;;;;;5055704;28;20908;-76
2021/04/13 10:45:47;;;;;;;6.87;5.40;;;12.50;50.60;;;;;;5056250;28;20474;-77
2021/04/13 10:48:46;;;;;;;4.70;4.20;;;12.50;48.90;;;;;;5057519;28;20883;-77
2021/04/13 10:51:57;;;;;;;5.10;4.53;;;12.70;46.90;;;;;;5056254;28;20472;-76
2021/04/13 10:54:57;;;;;;;6.80;6.20;;;14.20;47.10;;;;;;5037486;28;20535;-76
2021/04/13 10:58:09;;;;;;;9.80;5.27;;;13.80;46.70;;;;;;5055425;28;20439;-76
2021/04/13 11:00:52;;;;;;;5.27;4.77;;;15.20;44.10;;;;;;5054749;28;20469;-76
2021/04/13 11:04:01;;;;;;;4.70;4.30;;;13.10;46.00;;;;;;5055315;28;20518;-76
2021/04/13 11:07:09;;;;;;;5.17;4.33;;;13.20;45.60;;;;;;5037940;28;20437;-76
2021/04/13 11:09:53;;;;;;;5.60;5.00;;;12.20;46.00;;;;;;5055540;28;20518;-76
2021/04/13 11:13:15;;;;;;;4.53;4.10;;;11.20;49.90;;;;;;5021281;28;21032;-76
2021/04/13 11:16:06;;;;;;;4.80;4.03;;;10.60;50.90;;;;;;5054569;28;20525;-76
2021/04/13 11:19:16;;;;;;;5.77;4.37;;;10.10;52.80;;;;;;5055735;28;20472;-77
2021/04/13 11:22:27;;;;;;;6.23;4.57;;;9.70;54.80;;;;;;5055374;28;20476;-76
2021/04/13 11:25:27;;;;;;;4.00;3.63;;;9.40;56.00;;;;;;5039930;28;20459;-76
2021/04/13 11:28:43;;;;;;;3.97;3.57;;;10.20;55.10;;;;;;5055146;28;20471;-76
2021/04/13 11:31:51;;;;;;;4.50;3.93;;;12.00;49.40;;;;;;5041015;28;20477;-77
2021/04/13 11:34:53;;;;;;;4.93;4.30;;;11.80;50.60;;;;;;5076593;28;20467;-76
2021/04/13 11:37:35;;;;;;;5.20;4.13;;;10.80;50.60;;;;;;5037484;28;20459;-75
2021/04/13 11:40:46;;;;;;;4.20;3.80;;;12.20;50.30;;;;;;5075658;28;20445;-76
2021/04/13 11:43:15;;;;;;;4.07;3.67;;;12.80;50.30;;;;;;5042761;28;20931;-75
2021/04/13 11:45:49;;;;;;;4.83;4.43;;;12.30;50.80;;;;;;5063084;28;20474;-76
2021/04/13 11:48:25;;;;;;;4.63;4.10;;;11.20;51.60;;;;;;5063798;28;20436;-75
2021/04/13 11:51:00;;;;;;;5.90;4.30;;;11.10;53.20;;;;;;5044292;28;20486;-76
2021/04/13 11:56:35;;;;;;;4.10;3.70;;;9.00;56.40;;;;;;5041951;28;20431;-76
2021/04/13 11:59:20;;;;;;;4.70;4.20;;;8.80;58.30;;;;;;5041469;28;20954;-77
2021/04/13 12:01:53;;;;;;;4.20;3.80;;;9.90;56.40;;;;;;5060091;28;20481;-75
2021/04/13 12:04:24;;;;;;;3.67;3.33;;;10.80;53.10;;;;;;5060555;28;20867;-76
2021/04/13 12:06:59;;;;;;;6.13;3.23;;;12.00;50.90;;;;;;5029284;28;20523;-78
2021/04/13 12:09:37;;;;;;;5.63;4.40;;;12.10;49.20;;;;;;5042073;28;20841;-76
2021/04/13 12:12:46;;;;;;;3.20;2.90;;;11.70;49.20;;;;;;5062166;28;20464;-76
2021/04/13 12:15:49;;;;;;;4.20;3.80;;;11.10;49.70;;;;;;5058388;28;20445;-75
2021/04/13 12:19:06;;;;;;;3.70;3.40;;;10.00;51.20;;;;;;5054623;28;20450;-75
2021/04/13 12:21:48;;;;;;;3.40;3.10;;;9.30;52.70;;;;;;5057149;28;20426;-76
2021/04/13 12:24:47;;;;;;;3.00;2.80;;;8.80;53.80;;;;;;5039919;28;20436;-76
2021/04/13 12:27:46;;;;;;;6.27;4.80;;;8.70;53.90;;;;;;5051329;28;20492;-76
2021/04/13 12:30:54;;;;;;;3.20;2.90;;;8.60;54.20;;;;;;5048512;28;20441;-75
2021/04/13 12:34:04;;;;;;;3.23;2.93;;;8.80;53.60;;;;;;5018972;28;20448;-75
2021/04/13 12:37:00;;;;;;;6.60;2.93;;;8.40;53.30;;;;;;5056816;28;20442;-76
2021/04/13 12:39:52;;;;;;;2.67;2.40;;;8.40;53.50;;;;;;5056391;28;20438;-76
2021/04/13 12:42:47;;;;;;;2.63;2.43;;;8.40;53.20;;;;;;5057537;28;20466;-77
2021/04/13 12:45:30;;;;;;;3.20;2.90;;;8.40;52.50;;;;;;5056237;28;20531;-77
2021/04/13 12:48:01;;;;;;;2.73;2.53;;;8.30;53.20;;;;;;5057306;28;21160;-77
2021/04/13 12:50:33;;;;;;;2.70;2.40;;;8.80;52.40;;;;;;5056866;28;20445;-77
2021/04/13 12:53:11;;;;;;;3.07;2.63;;;9.20;51.40;;;;;;5022438;28;20407;-76
2021/04/13 12:55:38;;;;;;;4.40;3.27;;;9.60;52.10;;;;;;5057371;28;20460;-79
2021/04/13 12:58:28;;;;;;;2.77;2.57;;;9.70;51.60;;;;;;5038319;28;20461;-76
2021/04/13 13:00:58;;;;;;;3.40;2.57;;;9.30;50.80;;;;;;5037811;28;20469;-77
2021/04/13 13:03:34;;;;;;;2.60;2.40;;;8.80;50.00;;;;;;5039103;28;20531;-77
2021/04/13 13:06:16;;;;;;;3.10;2.30;;;8.80;49.60;;;;;;5057247;28;20408;-77
2021/04/13 13:08:57;;;;;;;2.30;2.00;;;9.00;49.60;;;;;;5041507;28;20419;-77
2021/04/13 13:11:25;;;;;;;3.40;2.07;;;9.50;48.80;;;;;;5060403;28;20441;-77
2021/04/13 13:13:54;;;;;;;2.43;2.20;;;10.50;47.00;;;;;;5038481;28;20415;-76
2021/04/13 13:16:43;;;;;;;2.60;2.40;;;11.60;45.30;;;;;;5057259;28;20472;-76
2021/04/13 13:19:26;;;;;;;2.57;2.37;;;13.10;43.90;;;;;;5076674;28;20427;-77
2021/04/13 13:21:56;;;;;;;2.07;1.80;;;12.20;43.50;;;;;;5058754;28;20445;-78
2021/04/13 13:24:28;;;;;;;2.00;1.80;;;10.60;45.40;;;;;;5059255;28;20458;-76
2021/04/13 13:26:55;;;;;;;3.43;2.43;;;10.10;47.60;;;;;;5075287;28;20434;-76
2021/04/13 13:29:55;;;;;;;3.90;3.60;;;10.10;48.10;;;;;;5075247;28;20435;-77
2021/04/13 13:32:26;;;;;;;2.20;2.00;;;10.20;48.10;;;;;;5073613;28;20664;-76
2021/04/13 13:34:56;;;;;;;3.10;2.50;;;10.10;48.70;;;;;;5055180;28;20467;-77
2021/04/13 13:37:35;;;;;;;4.33;3.27;;;10.50;49.20;;;;;;5038096;28;20465;-76
2021/04/13 13:40:08;;;;;;;2.60;2.40;;;10.10;48.30;;;;;;5071566;28;20442;-76
2021/04/13 13:42:39;;;;;;;2.50;2.30;;;9.80;50.50;;;;;;5054430;28;20430;-77
2021/04/13 13:45:22;;;;;;;3.80;2.23;;;9.80;50.60;;;;;;5053904;28;20464;-76
2021/04/13 13:47:49;;;;;;;3.17;2.47;;;9.80;50.00;;;;;;5044626;28;20460;-77
2021/04/13 13:50:26;;;;;;;5.97;5.13;;;9.60;48.70;;;;;;5040413;28;20443;-76
2021/04/13 13:52:57;;;;;;;12.30;9.27;;;9.70;48.70;;;;;;5040362;28;20435;-76
2021/04/13 13:55:29;;;;;;;4.53;2.40;;;10.50;47.70;;;;;;5040835;28;20440;-76
2021/04/13 13:58:03;;;;;;;2.50;2.20;;;10.50;47.00;;;;;;5058149;28;20442;-76
2021/04/13 14:00:36;;;;;;;3.00;2.63;;;10.90;46.80;;;;;;5040227;28;20447;-76
2021/04/13 14:03:09;;;;;;;2.60;2.13;;;10.70;45.70;;;;;;5057474;28;20471;-77
2021/04/13 14:05:37;;;;;;;3.57;2.83;;;11.00;46.30;;;;;;5039915;28;20466;-76
2021/04/13 14:08:06;;;;;;;2.40;2.20;;;10.60;46.40;;;;;;5073892;22;20495;-75
2021/04/13 14:10:35;;;;;;;3.87;2.17;;;10.00;46.20;;;;;;5058435;28;20436;-76